Latest Coastal Weather Observations for Bairnsdale

IDV60701

Issued at 10:15 am EDT Thursday 27 November 2014 (issued every 10 minutes, with the page automatically refreshed every 10 minutes)

About coastal observations | Map of coastal stations | Coastal observations for VIC | Marine services | Other Formats
Station Details ID: 085279 Name: BAIRNSDALE AIRPORT Lat: -37.88 Lon: 147.57 Height: 49.4 m
Data from the previous 72 hours. | See also: Recent months at Bairnsdale
Date/Time
EDT
Temp

°C
Wind Pressure Rain
since 9am
mm
Weather Cloud Vis
km
Sea
Height
m
Swell
Dir
 
Speed
knots
Gust
knots
hPa Trend Height
m
Period
s
Dir
27/10:00am 15.5 W 8 13 1025.2 - 0.0 - Partly cloudy 10 - - - -
27/09:30am 14.9 W 10 14 1025.5 - 0.0 - Partly cloudy 10 - - - -
27/09:00am 14.7 WSW 9 15 1025.5 - 0.0 - Partly cloudy 10 - - - -
27/08:30am 13.5 W 11 16 1025.6 - 0.0 - Cloudy 10 - - - -
27/08:00am 12.9 W 8 13 1025.4 - 0.0 - Cloudy 10 - - - -
27/07:30am 12.5 W 7 10 1025.1 - 0.0 - Cloudy 10 - - - -
27/07:00am 11.7 W 6 9 1024.8 - 0.0 - Cloudy 10 - - - -
27/06:30am 11.1 W 6 7 1024.4 - 0.0 - Cloudy 10 - - - -
27/06:00am 11.0 W 6 7 1024.2 - 0.0 - Cloudy 10 - - - -
27/05:30am 10.9 W 6 7 1024.0 - 0.0 - Cloudy 10 - - - -
27/05:00am 10.9 W 6 8 1023.8 - 0.0 - Cloudy 10 - - - -
27/04:30am 10.9 WNW 6 8 1023.6 - 0.0 - Cloudy 10 - - - -
27/04:00am 11.2 W 6 8 1023.3 - 0.0 - Cloudy 10 - - - -
27/03:30am 11.4 SW 9 12 1023.3 - 0.0 - Cloudy 10 - - - -
27/03:00am 11.3 WSW 7 9 1023.4 - 0.0 - Cloudy 10 - - - -
27/02:30am 11.2 W 6 8 1023.5 - 0.0 - Cloudy 10 - - - -
27/02:00am 11.4 W 7 10 1023.6 - 0.0 - Cloudy 10 - - - -
27/01:30am 11.3 W 8 11 1023.6 - 0.0 - Cloudy 10 - - - -
27/01:00am 11.3 W 7 9 1023.8 - 0.0 - Cloudy 10 - - - -
27/12:30am 10.8 WSW 9 12 1023.8 - 0.0 - Partly cloudy 10 - - - -
27/12:00am 10.7 WSW 5 7 1023.8 - 0.0 - Cloudy 10 - - - -
 
Date/Time
EDT
Temp

°C
Wind Pressure Rain
since 9am
mm
Weather Cloud Vis
km
Sea
Height
m
Swell
Dir
 
Speed
knots
Gust
knots
hPa Trend Height
m
Period
s
Dir
26/11:30pm 10.3 SW 5 6 1023.6 - 0.0 - Partly cloudy 10 - - - -
26/11:00pm 10.5 SSW 3 6 1023.5 - 0.0 - Partly cloudy 10 - - - -
26/10:30pm 11.5 SW 5 8 1023.5 - 0.0 - Partly cloudy 10 - - - -
26/10:00pm 12.5 SSW 10 13 1022.9 - 0.0 - Partly cloudy 10 - - - -
26/09:30pm 14.8 WSW 11 14 1022.6 - 0.0 - Cloudy 10 - - - -
26/09:00pm 13.5 WNW 4 6 1022.1 - 0.0 - Cloudy 10 - - - -
26/08:30pm 13.7 NW 4 5 1021.9 - 0.0 - Partly cloudy 10 - - - -
26/08:00pm 14.8 SW 5 7 1021.5 - 0.0 - Partly cloudy 10 - - - -
26/07:30pm 15.6 SW 10 12 1021.2 - 0.0 - Partly cloudy 10 - - - -
26/07:00pm 16.7 SW 12 15 1020.8 - 0.0 - Partly cloudy 10 - - - -
26/06:30pm 17.6 SW 13 19 1020.3 - 0.0 - Partly cloudy 10 - - - -
26/06:00pm 17.9 SSW 16 22 1020.0 - 0.0 - Mostly clear 10 - - - -
26/05:30pm 18.1 SSW 16 20 1019.8 - 0.0 - Partly cloudy 10 - - - -
26/05:00pm 20.5 SW 19 24 1019.5 - 0.0 - Partly cloudy 10 - - - -
26/04:30pm 20.9 SW 15 21 1019.5 - 0.0 - Partly cloudy 10 - - - -
26/04:00pm 20.3 WSW 16 21 1019.7 - 0.0 - Partly cloudy 10 - - - -
26/03:30pm 20.6 WSW 13 19 1019.6 - 0.0 - Partly cloudy 10 - - - -
26/03:00pm 20.6 WSW 13 18 1019.6 - 0.0 - Mostly clear 10 - - - -
26/02:30pm 20.3 SW 16 21 1019.7 - 0.0 - Partly cloudy 10 - - - -
26/02:00pm 18.8 WSW 16 20 1019.6 - 0.0 - - 10 - - - -
26/01:30pm 19.7 SW 16 22 1019.6 - 0.0 - Partly cloudy 10 - - - -
26/01:00pm 19.2 SW 14 20 1019.8 - 0.0 - - 10 - - - -
26/12:30pm 18.8 SW 14 19 1019.9 - 0.0 - - 10 - - - -
26/12:00pm 18.7 W 12 17 1019.9 - 0.0 - - 10 - - - -
26/11:30am 18.5 WSW 14 19 1019.9 - 0.0 - - 10 - - - -
26/11:00am 18.9 WSW 11 17 1019.9 - 0.0 - Partly cloudy 10 - - - -
26/10:30am 17.3 WSW 10 13 1020.1 - 0.0 - - 10 - - - -
26/10:00am 17.0 WSW 8 11 1020.2 - 0.0 - - 10 - - - -
26/09:30am 15.9 SW 11 15 1020.3 - 0.0 - - 10 - - - -
26/09:00am 14.9 WSW 9 11 1020.6 - 0.0 - - 10 - - - -
26/08:30am 14.2 W 4 7 1020.5 - 0.0 - - 10 - - - -
26/08:00am 11.8 CALM 0 1 1020.3 - 0.0 - - 10 - - - -
26/07:30am 10.8 NW 3 4 1020.0 - 0.0 - - 10 - - - -
26/07:00am 9.6 NW 4 5 1019.9 - 0.0 - - 10 - - - -
26/06:30am 8.8 NW 5 6 1019.7 - 0.0 - - 10 - - - -
26/06:00am 8.8 W 4 5 1019.5 - 0.0 - - 10 - - - -
26/05:30am 8.5 W 4 4 1019.2 - 0.0 - - 10 - - - -
26/05:00am 8.6 WNW 3 4 1019.2 - 0.0 - Partly cloudy 10 - - - -
26/04:30am 8.7 WNW 4 5 1019.2 - 0.0 - - 10 - - - -
26/04:00am 8.9 WNW 4 7 1019.0 - 0.0 - - 10 - - - -
26/03:30am 8.7 N 5 5 1019.2 - 0.0 - - 10 - - - -
26/03:00am 9.2 NNW 5 5 1019.4 - 0.0 - - 10 - - - -
26/02:30am 8.4 NW 5 6 1019.7 - 0.0 - - 10 - - - -
26/02:00am 8.9 NNW 5 6 1019.9 - 0.0 - - 10 - - - -
26/01:30am 8.9 NW 5 7 1020.2 - 0.0 - - 10 - - - -
26/01:00am 9.8 NNW 5 6 1020.4 - 0.0 - - 10 - - - -
26/12:30am 10.2 NNW 5 6 1020.8 - 0.0 - - 10 - - - -
26/12:00am 11.0 WNW 6 9 1020.8 - 0.0 - - 10 - - - -
 
Date/Time
EDT
Temp

°C
Wind Pressure Rain
since 9am
mm
Weather Cloud Vis
km
Sea
Height
m
Swell
Dir
 
Speed
knots
Gust
knots
hPa Trend Height
m
Period
s
Dir
25/11:30pm 11.3 WNW 7 9 1021.0 - 0.0 - - 10 - - - -
25/11:00pm 11.6 WNW 6 8 1021.0 - 0.0 - - 10 - - - -
25/10:30pm 12.8 WNW 7 11 1020.7 - 0.0 - - 10 - - - -
25/10:00pm 13.3 W 8 12 1020.4 - 0.0 - - 10 - - - -
25/09:30pm 13.6 W 7 9 1020.1 - 0.0 - - 10 - - - -
25/09:00pm 14.5 W 6 9 1019.4 - 0.0 - - 10 - - - -
25/08:30pm 15.5 WSW 8 12 1018.9 - 0.0 - - 10 - - - -
25/08:00pm 16.3 SW 9 14 1018.3 - 0.0 - - 10 - - - -
25/07:30pm 17.5 SW 15 21 1017.7 - 0.0 - - 10 - - - -
25/07:00pm 18.7 WSW 16 22 1017.0 - 0.0 - - 10 - - - -
25/06:30pm 19.3 WSW 15 22 1016.7 - 0.0 - - 10 - - - -
25/06:00pm 19.8 SW 17 24 1016.5 - 0.0 - - 10 - - - -
25/05:30pm 20.5 WSW 16 22 1016.3 - 0.0 - - 10 - - - -
25/05:00pm 20.6 WSW 15 21 1016.4 - 0.0 - - 10 - - - -
25/04:37pm 20.8 WSW 16 26 1016.3 - 0.0 - - 10 - - - -
25/04:30pm 20.7 SW 19 26 1016.4 - 0.0 - - 10 - - - -
25/04:20pm 20.7 WSW 16 26 1016.4 - 0.0 - - 10 - - - -
25/04:00pm 21.3 WSW 16 24 1016.4 - 0.0 - - 10 - - - -
25/03:30pm 20.8 WSW 18 27 1016.5 - 0.0 - - 10 - - - -
25/03:12pm 20.6 WSW 17 27 1016.5 - 0.0 - - 10 - - - -
25/03:00pm 20.5 SW 18 26 1016.5 - 0.0 - - 10 - - - -
25/02:30pm 20.8 WSW 17 22 1016.6 - 0.0 - - 10 - - - -
25/02:00pm 20.2 SW 18 26 1016.6 - 0.0 - Partly cloudy 10 - - - -
25/01:31pm 21.1 WSW 15 25 1016.5 - 0.0 - Partly cloudy 10 - - - -
25/01:30pm 20.3 WSW 16 25 1016.5 - 0.0 - Partly cloudy 10 - - - -
25/01:07pm 20.4 WSW 16 26 1016.6 - 0.0 - Partly cloudy 10 - - - -
25/01:00pm 20.1 WSW 18 26 1016.7 - 0.0 - Partly cloudy 10 - - - -
25/12:30pm 20.0 W 18 28 1016.5 - 0.0 - Partly cloudy 10 - - - -
25/12:00pm 18.7 WSW 22 32 1016.7 - 0.0 - Mostly clear 10 - - - -
25/11:30am 18.3 WSW 20 30 1016.7 - 0.0 - Partly cloudy 10 - - - -
25/11:11am 19.2 W 20 30 1016.3 - 0.0 - Partly cloudy 10 - - - -
25/11:00am 18.2 WSW 19 27 1016.3 - 0.0 - Partly cloudy 10 - - - -
25/10:30am 17.8 W 21 29 1016.1 - 0.0 - - 10 - - - -
25/10:00am 17.7 W 19 26 1015.8 - 0.0 - Partly cloudy 10 - - - -
25/09:43am 17.2 W 16 27 1015.7 - 0.0 - Partly cloudy 10 - - - -
25/09:30am 16.6 W 13 21 1015.7 - 0.0 - Partly cloudy 10 - - - -
25/09:00am 15.2 WNW 12 20 1015.5 - 11.8 - Partly cloudy 10 - - - -
25/08:30am 15.6 W 13 19 1015.1 - 11.8 - - 10 - - - -
25/08:00am 14.5 W 10 18 1014.9 - 11.8 - - 10 - - - -
25/07:30am 13.4 WNW 10 13 1014.6 - 11.8 - - 10 - - - -
25/07:00am 11.1 WNW 6 7 1014.4 - 11.8 - - 10 - - - -
25/06:30am 10.0 WNW 7 9 1013.8 - 11.8 - - 10 - - - -
25/06:00am 9.8 W 8 11 1013.5 - 11.8 - - 10 - - - -
25/05:30am 10.9 W 11 16 1012.9 - 11.8 - - 10 - - - -
25/05:00am 11.5 W 14 19 1012.6 - 11.8 - - 10 - - - -
25/04:30am 11.4 W 12 18 1012.3 - 11.8 - - 10 - - - -
25/04:00am 11.4 W 11 16 1011.9 - 11.8 - - 10 - - - -
25/03:30am 11.5 W 10 15 1011.8 - 11.8 - - 10 - - - -
25/03:00am 11.7 WSW 17 22 1011.5 - 11.8 - - 10 - - - -
25/02:34am 12.1 WSW 16 27 1011.1 - 11.8 - Partly cloudy 10 - - - -
25/02:30am 12.2 WSW 14 23 1011.2 - 11.8 - Partly cloudy 10 - - - -
25/02:00am 12.2 W 11 17 1011.4 - 11.8 - Partly cloudy 10 - - - -
25/01:30am 12.5 WSW 9 13 1011.3 - 11.8 - Partly cloudy 10 - - - -
25/01:00am 12.8 W 11 14 1011.5 - 11.8 - Cloudy 10 - - - -
25/12:30am 12.9 W 10 14 1011.5 - 11.8 - Cloudy 10 - - - -
25/12:00am 13.0 WSW 13 20 1011.4 - 11.8 - Cloudy 10 - - - -
 
Date/Time
EDT
Temp

°C
Wind Pressure Rain
since 9am
mm
Weather Cloud Vis
km
Sea
Height
m
Swell
Dir
 
Speed
knots
Gust
knots
hPa Trend Height
m
Period
s
Dir
24/11:30pm 13.1 WSW 15 20 1011.3 - 11.8 - Partly cloudy 10 - - - -
24/11:00pm 13.5 W 17 25 1011.3 - 11.8 - Partly cloudy 10 - - - -
24/10:51pm 13.5 W 21 25 1010.9 - 11.8 - Partly cloudy 10 - - - -
24/10:30pm 14.2 W 9 15 1010.8 - 11.8 - Cloudy 10 - - - -
24/10:00pm 14.5 W 9 12 1010.4 - 11.8 - Partly cloudy 10 - - - -
24/09:30pm 14.6 WSW 7 10 1009.7 - 11.6 - Partly cloudy 10 - - - -
24/09:00pm 14.5 SSW 11 15 1008.9 - 11.6 Recent precip. Cloudy 9 - - - -
24/08:58pm 14.5 SSW 11 15 1008.8 - 11.6 - Partly cloudy 8 - - - -
24/08:54pm 14.5 SW 12 17 1009.0 - 11.6 - Partly cloudy 7 - - - -
24/08:33pm 15.4 WSW 17 25 1008.6 - 10.6 - Partly cloudy 4 - - - -
24/08:31pm 15.5 W 15 24 1008.4 - 10.4 - Partly cloudy 5 - - - -
24/08:30pm 15.6 W 15 22 1008.4 - 10.2 - Partly cloudy 6 - - - -
24/08:29pm 15.6 W 15 22 1008.3 - 10.0 - Partly cloudy 8 - - - -
24/08:00pm 16.7 SW 10 19 1007.1 - 9.2 - Partly cloudy 10 - - - -
24/07:53pm 16.8 SW 13 19 1007.1 - 9.2 - Partly cloudy 10 - - - -
24/07:30pm 16.6 WSW 7 8 1006.5 - 9.2 - Partly cloudy 10 - - - -
24/07:14pm 16.6 SSW 4 7 1005.8 - 9.0 - Partly cloudy 10 - - - -
24/07:00pm 16.6 SW 3 4 1005.3 - 9.0 - Partly cloudy 10 - - - -
24/06:55pm 16.5 WSW 4 8 1005.4 - 9.0 - Partly cloudy 10 - - - -
24/06:30pm 16.4 ENE 12 19 1003.6 - 9.0 - Partly cloudy 10 - - - -
24/06:16pm 16.5 NE 11 15 1004.2 - 8.4 - Partly cloudy 7 - - - -
24/06:00pm 16.9 NE 10 12 1005.8 - 7.0 Rain Cloudy 2 - - - -
24/05:48pm 17.1 N 6 8 1007.2 - 4.2 - Partly cloudy 5 - - - -
24/05:30pm 17.2 ENE 9 13 1005.1 - 2.8 - Partly cloudy 9 - - - -
24/05:02pm 18.0 S 5 7 1006.1 - 1.8 - Partly cloudy 8 - - - -
24/05:00pm 18.0 S 5 6 1006.4 - 1.6 - Partly cloudy 8 - - - -
24/04:44pm 18.1 SW 5 7 1007.0 - 1.0 - Partly cloudy 5 - - - -
24/04:30pm 18.7 S 5 6 1007.1 - 0.0 - Partly cloudy 10 - - - -
24/04:00pm 19.7 E 6 8 1006.9 - 0.0 - Partly cloudy 6 - - - -
24/03:30pm 20.7 ENE 6 9 1006.9 - 0.0 - Partly cloudy 10 - - - -
24/03:00pm 19.8 SSE 5 7 1007.5 - 0.0 - Mostly clear 10 - - - -
24/02:30pm 19.4 S 7 12 1007.7 - 0.0 - Partly cloudy 10 - - - -
24/02:00pm 19.0 SSW 12 15 1008.3 - 0.0 - - 10 - - - -
24/01:30pm 19.7 S 11 14 1008.1 - 0.0 - - 10 - - - -
24/01:00pm 20.2 SW 10 12 1008.4 - 0.0 - - 10 - - - -
24/12:30pm 20.0 SSW 12 17 1008.6 - 0.0 - - 10 - - - -
24/12:00pm 18.7 SW 13 18 1008.9 - 0.0 - Partly cloudy 10 - - - -
24/11:52am 18.3 SW 15 18 1008.8 - 0.0 - - 10 - - - -
24/11:30am 18.9 W 2 4 1007.9 - 0.0 - - 10 - - - -
24/11:00am 18.5 W 4 6 1007.8 - 0.0 - - 10 - - - -
24/10:30am 18.0 NW 4 6 1007.8 - 0.0 - - 10 - - - -

Other Formats:

Comma delimited format used in spreadsheet applications
http://www.bom.gov.au/fwo/IDV60701/IDV60701.94912.axf

JavaScript Object Notation format (JSON) in row-major order
http://www.bom.gov.au/fwo/IDV60701/IDV60701.94912.json